createdAt,value
2023-03-15T00:00:11.977Z,19.50
2023-03-15T00:02:41.702Z,19.50
2023-03-15T00:05:14.089Z,19.50
2023-03-15T00:07:42.258Z,19.50
2023-03-15T00:10:11.598Z,19.40
2023-03-15T00:12:39.785Z,19.40
2023-03-15T00:15:08.862Z,19.40
2023-03-15T00:17:37.079Z,19.40
2023-03-15T00:20:06.770Z,19.40
2023-03-15T00:22:36.515Z,19.40
2023-03-15T00:25:05.018Z,19.40
2023-03-15T00:27:33.183Z,19.40
2023-03-15T00:30:01.638Z,19.30
2023-03-15T00:32:29.847Z,19.30
2023-03-15T00:34:58.052Z,19.30
2023-03-15T00:37:26.446Z,19.30
2023-03-15T00:39:56.489Z,19.30
2023-03-15T00:42:27.481Z,19.20
2023-03-15T00:44:56.458Z,19.20
2023-03-15T00:47:24.795Z,19.20
2023-03-15T00:49:53.224Z,19.20
2023-03-15T00:52:22.198Z,19.20
2023-03-15T00:54:53.367Z,19.20
2023-03-15T00:57:23.583Z,19.10
2023-03-15T00:59:53.198Z,19.10
2023-03-15T01:02:22.345Z,19.10
2023-03-15T01:04:51.322Z,19.10
2023-03-15T01:07:19.523Z,19.10
2023-03-15T01:09:48.588Z,19.10
2023-03-15T01:12:16.874Z,19.00
2023-03-15T01:14:46.426Z,19.10
2023-03-15T01:17:14.589Z,19.10
2023-03-15T01:19:42.738Z,19.10
2023-03-15T01:22:10.953Z,19.10
2023-03-15T01:24:39.068Z,19.00
2023-03-15T01:27:07.283Z,19.00
2023-03-15T01:29:35.688Z,19.00
2023-03-15T01:32:05.702Z,19.00
2023-03-15T01:34:34.159Z,19.00
2023-03-15T01:37:02.971Z,18.90
2023-03-15T01:39:31.148Z,18.90
2023-03-15T01:41:59.353Z,18.90
2023-03-15T01:44:50.946Z,18.90
2023-03-15T01:47:21.034Z,18.80
2023-03-15T01:49:55.882Z,18.80
2023-03-15T01:52:30.368Z,18.80
2023-03-15T01:55:02.341Z,18.80
2023-03-15T01:57:36.310Z,18.80
2023-03-15T02:00:11.590Z,18.80
2023-03-15T02:02:46.565Z,18.80
2023-03-15T02:05:19.810Z,18.80
2023-03-15T02:07:51.001Z,18.70
2023-03-15T02:10:24.343Z,18.70
2023-03-15T02:12:54.209Z,18.70
2023-03-15T02:15:22.349Z,18.70
2023-03-15T02:17:52.140Z,18.70
2023-03-15T02:20:31.767Z,18.70
2023-03-15T02:23:03.382Z,18.60
2023-03-15T02:25:40.729Z,18.60
2023-03-15T02:28:13.073Z,18.60
2023-03-15T02:30:41.393Z,18.60
2023-03-15T02:33:16.203Z,18.60
2023-03-15T02:35:44.428Z,18.60
2023-03-15T02:38:12.600Z,18.50
2023-03-15T02:40:40.892Z,18.50
2023-03-15T02:43:14.975Z,18.50
2023-03-15T02:45:43.857Z,18.50
2023-03-15T02:48:13.023Z,18.50
2023-03-15T02:50:41.349Z,18.50
2023-03-15T02:53:09.777Z,18.40
2023-03-15T02:55:37.969Z,18.40
2023-03-15T02:58:06.264Z,18.40
2023-03-15T03:00:35.827Z,18.40
2023-03-15T03:03:04.010Z,18.30
2023-03-15T03:05:32.283Z,18.30
2023-03-15T03:08:00.420Z,18.30
2023-03-15T03:10:28.535Z,18.30
2023-03-15T03:12:56.733Z,18.30
2023-03-15T03:15:24.893Z,18.30
2023-03-15T03:17:54.571Z,18.30
2023-03-15T03:20:22.743Z,18.30
2023-03-15T03:22:50.903Z,18.30
2023-03-15T03:25:19.172Z,18.30
2023-03-15T03:27:47.302Z,18.30
2023-03-15T03:30:16.336Z,18.30
2023-03-15T03:32:44.552Z,18.20
2023-03-15T03:35:15.978Z,18.20
2023-03-15T03:37:44.381Z,18.20
2023-03-15T03:40:13.859Z,18.20
2023-03-15T03:42:42.024Z,18.20
2023-03-15T03:45:11.012Z,18.20
2023-03-15T03:47:39.178Z,18.20
2023-03-15T03:50:08.301Z,18.20
2023-03-15T03:52:37.870Z,18.10
2023-03-15T03:55:06.604Z,18.10
2023-03-15T03:57:35.586Z,18.10
2023-03-15T04:00:04.754Z,18.10
2023-03-15T04:02:34.175Z,18.10
2023-03-15T04:05:02.591Z,18.10
2023-03-15T04:07:30.878Z,18.00
2023-03-15T04:10:02.397Z,18.00
2023-03-15T04:12:30.568Z,18.00
2023-03-15T04:14:58.756Z,18.00
2023-03-15T04:17:26.915Z,17.90
2023-03-15T04:19:55.024Z,17.90
2023-03-15T04:22:23.184Z,17.90
2023-03-15T04:24:51.574Z,17.90
2023-03-15T04:27:21.100Z,17.90
2023-03-15T04:29:49.196Z,17.90
2023-03-15T04:32:18.120Z,17.90
2023-03-15T04:34:51.372Z,17.90
2023-03-15T04:37:19.664Z,17.90
2023-03-15T04:39:47.786Z,17.90
2023-03-15T04:42:15.949Z,17.90
2023-03-15T04:44:45.471Z,17.90
2023-03-15T04:47:13.575Z,17.90
2023-03-15T04:49:41.759Z,17.90
2023-03-15T04:52:10.094Z,18.00
2023-03-15T04:54:39.369Z,18.00
2023-03-15T04:57:07.568Z,18.00
2023-03-15T04:59:35.706Z,18.10
2023-03-15T05:02:05.447Z,18.10
2023-03-15T05:04:33.624Z,18.10
2023-03-15T05:07:01.742Z,18.20
2023-03-15T05:09:29.875Z,18.20
2023-03-15T05:11:57.979Z,18.30
2023-03-15T05:14:26.224Z,18.30
2023-03-15T05:16:56.029Z,18.30
2023-03-15T05:19:25.700Z,18.30
2023-03-15T05:21:54.733Z,18.30
2023-03-15T05:24:23.530Z,18.40
2023-03-15T05:26:54.345Z,18.40
2023-03-15T05:29:23.189Z,18.40
2023-03-15T05:31:52.440Z,18.40
2023-03-15T05:34:24.168Z,18.40
2023-03-15T05:36:53.782Z,18.50
2023-03-15T05:39:22.963Z,18.50
2023-03-15T05:41:51.772Z,18.50
2023-03-15T05:44:19.978Z,18.60
2023-03-15T05:46:48.084Z,18.60
2023-03-15T05:49:16.224Z,18.60
2023-03-15T05:51:44.339Z,18.60
2023-03-15T05:54:13.893Z,18.70
2023-03-15T05:56:42.026Z,18.70
2023-03-15T05:59:10.175Z,18.70
2023-03-15T06:01:38.318Z,18.70
2023-03-15T06:04:06.537Z,18.70
2023-03-15T06:06:34.709Z,18.80
2023-03-15T06:09:03.150Z,18.80
2023-03-15T06:11:32.649Z,18.80
2023-03-15T06:14:00.829Z,18.80
2023-03-15T06:16:29.042Z,18.90
2023-03-15T06:18:57.228Z,18.90
2023-03-15T06:21:25.451Z,18.90
2023-03-15T06:23:53.633Z,19.00
2023-03-15T06:26:23.023Z,19.00
2023-03-15T06:28:52.588Z,19.00
2023-03-15T06:31:20.719Z,19.10
2023-03-15T06:33:48.844Z,19.10
2023-03-15T06:36:17.038Z,19.10
2023-03-15T06:38:45.188Z,19.10
2023-03-15T06:41:15.436Z,19.20
2023-03-15T06:43:43.678Z,19.20
2023-03-15T06:46:13.347Z,19.20
2023-03-15T06:48:41.493Z,19.30
2023-03-15T06:51:09.682Z,19.30
2023-03-15T06:53:38.403Z,19.30
2023-03-15T06:56:07.130Z,19.30
2023-03-15T06:58:35.279Z,19.30
2023-03-15T07:01:03.525Z,19.30
2023-03-15T07:03:33.094Z,19.30
2023-03-15T07:06:01.285Z,19.40
2023-03-15T07:08:29.385Z,19.60
2023-03-15T07:10:57.740Z,19.60
2023-03-15T07:13:25.926Z,19.60
2023-03-15T07:15:54.641Z,19.60
2023-03-15T07:18:23.092Z,19.70
2023-03-15T07:20:58.730Z,19.70
2023-03-15T07:23:26.902Z,19.80
2023-03-15T07:25:55.838Z,19.90
2023-03-15T07:28:24.879Z,19.90
2023-03-15T07:30:57.565Z,19.90
2023-03-15T07:33:27.277Z,20.00
2023-03-15T07:35:56.379Z,20.10
2023-03-15T07:38:28.869Z,20.10
2023-03-15T07:40:57.463Z,20.30
2023-03-15T07:43:25.685Z,20.40
2023-03-15T07:45:53.863Z,20.40
2023-03-15T07:48:22.005Z,20.50
2023-03-15T07:50:50.703Z,20.50
2023-03-15T07:53:18.823Z,20.50
2023-03-15T07:55:49.858Z,20.60
2023-03-15T07:58:20.275Z,20.60
2023-03-15T08:00:49.055Z,20.50
2023-03-15T08:03:17.416Z,20.60
2023-03-15T08:05:45.647Z,20.70
2023-03-15T08:08:13.828Z,21.00
2023-03-15T08:10:43.271Z,21.40
2023-03-15T08:13:13.034Z,21.60
2023-03-15T08:15:41.436Z,21.70
2023-03-15T08:18:09.578Z,21.90
2023-03-15T08:20:37.789Z,22.10
2023-03-15T08:23:06.326Z,22.20
2023-03-15T08:25:34.492Z,22.30
2023-03-15T08:28:02.620Z,22.40
2023-03-15T08:30:32.132Z,22.60
2023-03-15T08:33:00.329Z,22.70
2023-03-15T08:35:28.675Z,23.10
2023-03-15T08:37:56.854Z,23.50
2023-03-15T08:40:25.069Z,23.90
2023-03-15T08:42:53.726Z,24.40
2023-03-15T08:45:23.989Z,24.80
2023-03-15T08:47:56.938Z,25.10
2023-03-15T08:50:26.755Z,25.10
2023-03-15T08:52:54.766Z,25.10
2023-03-15T08:55:22.875Z,25.10
2023-03-15T08:57:51.130Z,25.40
2023-03-15T09:00:22.929Z,25.90
2023-03-15T09:02:53.409Z,26.20
2023-03-15T09:05:22.396Z,26.40
2023-03-15T09:07:53.136Z,26.40
2023-03-15T09:10:22.147Z,26.80
2023-03-15T09:12:53.668Z,27.20
2023-03-15T09:15:22.052Z,27.70
2023-03-15T09:17:52.070Z,27.70
2023-03-15T09:20:24.007Z,27.80
2023-03-15T09:22:53.680Z,28.30
2023-03-15T09:25:22.171Z,28.80
2023-03-15T09:27:50.642Z,28.30
2023-03-15T09:30:19.851Z,28.40
2023-03-15T09:32:48.431Z,28.90
2023-03-15T09:35:18.275Z,29.20
2023-03-15T09:37:48.771Z,29.80
2023-03-15T09:40:21.032Z,30.30
2023-03-15T09:43:15.114Z,30.90
2023-03-15T09:45:56.460Z,31.40
2023-03-15T09:48:32.409Z,31.80
2023-03-15T09:51:06.041Z,31.60
2023-03-15T09:53:41.348Z,30.70
2023-03-15T09:56:23.717Z,29.90
2023-03-15T09:58:55.545Z,29.10
2023-03-15T10:01:29.077Z,29.60
2023-03-15T10:03:57.478Z,30.60
2023-03-15T10:06:29.995Z,31.70
2023-03-15T10:09:01.270Z,31.90
2023-03-15T10:11:38.742Z,32.40
2023-03-15T10:14:22.765Z,33.00
2023-03-15T10:16:52.562Z,33.70
2023-03-15T10:19:29.973Z,34.20
2023-03-15T10:22:03.260Z,34.70
2023-03-15T10:24:40.988Z,35.10
2023-03-15T10:27:16.897Z,35.60
2023-03-15T10:29:46.838Z,36.00
2023-03-15T10:32:19.046Z,35.10
2023-03-15T10:34:51.084Z,34.40
2023-03-15T10:37:19.318Z,34.60
2023-03-15T10:39:53.434Z,35.40
2023-03-15T10:42:29.954Z,36.10
2023-03-15T10:44:58.725Z,36.80
2023-03-15T10:47:28.217Z,37.30
2023-03-15T10:50:00.619Z,37.20
2023-03-15T10:52:34.975Z,36.40
2023-03-15T10:55:07.622Z,36.90
2023-03-15T10:57:39.097Z,37.50
2023-03-15T11:00:24.046Z,38.10
2023-03-15T11:03:01.619Z,38.50
2023-03-15T11:05:33.228Z,38.90
2023-03-15T11:08:02.408Z,39.20
2023-03-15T11:10:35.788Z,39.50
2023-03-15T11:13:15.712Z,39.80
2023-03-15T11:15:53.897Z,40.00
2023-03-15T11:18:28.466Z,39.80
2023-03-15T11:20:58.326Z,39.90
2023-03-15T11:23:29.376Z,40.30
2023-03-15T11:25:59.324Z,40.80
2023-03-15T11:28:31.016Z,41.20
2023-03-15T11:31:01.005Z,41.40
2023-03-15T11:33:39.864Z,40.40
2023-03-15T11:36:14.395Z,39.10
2023-03-15T11:38:45.237Z,38.50
2023-03-15T11:41:27.648Z,39.30
2023-03-15T11:44:03.749Z,39.50
2023-03-15T11:46:35.590Z,38.90
2023-03-15T11:49:10.531Z,39.70
2023-03-15T11:51:38.801Z,39.70
2023-03-15T11:54:12.517Z,40.10
2023-03-15T11:56:51.471Z,40.20
2023-03-15T11:59:21.784Z,40.70
2023-03-15T12:01:52.405Z,41.30
2023-03-15T12:04:51.126Z,41.70
2023-03-15T12:07:38.432Z,41.30
2023-03-15T12:10:35.241Z,40.70
2023-03-15T12:13:24.709Z,40.90
2023-03-15T12:15:53.918Z,40.30
2023-03-15T12:18:28.147Z,39.30
2023-03-15T12:21:08.752Z,38.50
2023-03-15T12:23:42.612Z,37.70
2023-03-15T12:26:29.048Z,37.90
2023-03-15T12:29:12.801Z,38.80
2023-03-15T12:31:58.881Z,39.30
2023-03-15T12:34:38.275Z,39.80
2023-03-15T12:37:09.616Z,39.50
2023-03-15T12:39:44.502Z,39.70
2023-03-15T12:42:54.682Z,39.50
2023-03-15T12:45:46.554Z,38.70
2023-03-15T12:48:28.801Z,38.60
2023-03-15T12:51:11.435Z,39.40
2023-03-15T12:53:47.670Z,39.90
2023-03-15T12:56:45.941Z,40.30
2023-03-15T12:59:21.824Z,40.30
2023-03-15T13:01:52.378Z,40.70
2023-03-15T13:04:21.837Z,41.00
2023-03-15T13:06:58.580Z,40.60
2023-03-15T13:09:54.654Z,40.30
2023-03-15T13:12:28.513Z,40.50
2023-03-15T13:15:02.621Z,40.00
2023-03-15T13:17:41.702Z,40.10
2023-03-15T13:20:24.633Z,40.40
2023-03-15T13:23:00.481Z,40.80
2023-03-15T13:25:34.961Z,41.00
2023-03-15T13:28:08.728Z,41.20
2023-03-15T13:30:40.185Z,41.40
2023-03-15T13:33:20.998Z,41.60
2023-03-15T13:35:55.413Z,41.70
2023-03-15T13:38:27.246Z,41.90
2023-03-15T13:40:56.110Z,42.00
2023-03-15T13:43:28.136Z,42.10
2023-03-15T13:45:59.378Z,42.20
2023-03-15T13:48:34.455Z,41.90
2023-03-15T13:51:06.115Z,42.00
2023-03-15T13:53:49.005Z,41.70
2023-03-15T13:56:20.086Z,42.10
2023-03-15T13:58:49.773Z,42.80
2023-03-15T14:01:19.202Z,43.40
2023-03-15T14:03:57.606Z,44.10
2023-03-15T14:06:26.754Z,44.70
2023-03-15T14:09:00.477Z,45.30
2023-03-15T14:11:37.413Z,45.20
2023-03-15T14:14:23.163Z,44.90
2023-03-15T14:17:04.253Z,45.10
2023-03-15T14:19:36.922Z,44.60
2023-03-15T14:22:15.768Z,44.60
2023-03-15T14:24:47.615Z,44.10
2023-03-15T14:27:17.934Z,43.10
2023-03-15T14:29:49.555Z,43.20
2023-03-15T14:32:27.824Z,42.50
2023-03-15T14:35:03.682Z,41.80
2023-03-15T14:37:36.771Z,41.10
2023-03-15T14:40:16.900Z,41.20
2023-03-15T14:42:45.438Z,41.90
2023-03-15T14:45:13.916Z,42.60
2023-03-15T14:47:55.439Z,43.00
2023-03-15T14:50:28.930Z,42.40
2023-03-15T14:52:59.259Z,41.40
2023-03-15T14:55:33.385Z,41.60
2023-03-15T14:58:01.874Z,42.20
2023-03-15T15:00:30.355Z,41.90
2023-03-15T15:02:59.375Z,41.60
2023-03-15T15:05:31.530Z,41.30
2023-03-15T15:08:05.248Z,41.90
2023-03-15T15:10:34.929Z,42.70
2023-03-15T15:13:06.806Z,43.30
2023-03-15T15:15:53.554Z,43.80
2023-03-15T15:18:24.179Z,44.00
2023-03-15T15:20:55.932Z,44.40
2023-03-15T15:23:27.504Z,43.70
2023-03-15T15:25:58.601Z,42.80
2023-03-15T15:28:35.508Z,42.90
2023-03-15T15:31:06.790Z,43.20
2023-03-15T15:33:35.036Z,43.40
2023-03-15T15:36:04.977Z,43.70
2023-03-15T15:38:38.922Z,43.70
2023-03-15T15:41:12.703Z,44.00
2023-03-15T15:43:40.880Z,44.10
2023-03-15T15:46:13.553Z,44.20
2023-03-15T15:48:42.722Z,44.20
2023-03-15T15:51:23.994Z,44.20
2023-03-15T15:53:53.529Z,44.20
2023-03-15T15:56:23.512Z,44.10
2023-03-15T15:58:51.750Z,44.00
2023-03-15T16:01:19.891Z,43.80
2023-03-15T16:03:48.040Z,43.60
2023-03-15T16:06:20.099Z,43.50
2023-03-15T16:08:50.805Z,43.30
2023-03-15T16:11:19.884Z,43.10
2023-03-15T16:13:50.992Z,42.80
2023-03-15T16:16:19.852Z,42.50
2023-03-15T16:18:48.043Z,42.20
2023-03-15T16:21:23.540Z,42.00
2023-03-15T16:24:00.359Z,41.70
2023-03-15T16:26:29.026Z,41.40
2023-03-15T16:28:57.003Z,41.10
2023-03-15T16:31:25.169Z,40.90
2023-03-15T16:33:53.331Z,40.60
2023-03-15T16:36:25.348Z,40.30
2023-03-15T16:38:53.558Z,39.90
2023-03-15T16:41:21.657Z,39.40
2023-03-15T16:43:49.796Z,39.00
2023-03-15T16:46:18.491Z,38.60
2023-03-15T16:48:46.561Z,38.20
2023-03-15T16:51:17.087Z,37.90
2023-03-15T16:53:46.757Z,37.40
2023-03-15T16:56:16.427Z,37.10
2023-03-15T16:58:45.912Z,36.80
2023-03-15T17:01:14.046Z,36.40
2023-03-15T17:03:42.784Z,36.10
2023-03-15T17:06:20.161Z,35.90
2023-03-15T17:08:50.324Z,35.60
2023-03-15T17:11:19.266Z,35.30
2023-03-15T17:13:47.684Z,35.00
2023-03-15T17:16:17.010Z,34.80
2023-03-15T17:18:47.754Z,34.60
2023-03-15T17:21:17.664Z,34.50
2023-03-15T17:23:46.976Z,34.30
2023-03-15T17:26:19.119Z,34.10
2023-03-15T17:28:47.667Z,33.90
2023-03-15T17:31:24.974Z,33.80
2023-03-15T17:33:53.377Z,33.60
2023-03-15T17:36:24.598Z,33.50
2023-03-15T17:38:54.554Z,33.40
2023-03-15T17:41:28.163Z,33.20
2023-03-15T17:43:56.635Z,33.10
2023-03-15T17:46:30.101Z,32.90
2023-03-15T17:48:59.303Z,32.80
2023-03-15T17:51:30.265Z,32.70
2023-03-15T17:53:59.459Z,32.50
2023-03-15T17:56:28.914Z,32.40
2023-03-15T17:58:56.990Z,32.30
2023-03-15T18:01:27.932Z,32.20
2023-03-15T18:03:57.231Z,32.10
2023-03-15T18:06:25.208Z,31.90
2023-03-15T18:08:53.872Z,31.80
2023-03-15T18:11:26.384Z,31.70
2023-03-15T18:13:56.542Z,31.60
2023-03-15T18:16:25.140Z,31.50
2023-03-15T18:18:53.309Z,31.40
2023-03-15T18:21:24.154Z,31.30
2023-03-15T18:23:52.727Z,31.20
2023-03-15T18:26:21.772Z,31.10
2023-03-15T18:28:50.044Z,31.00
2023-03-15T18:31:21.427Z,30.90
2023-03-15T18:33:50.413Z,30.80
2023-03-15T18:36:19.153Z,30.70
2023-03-15T18:38:47.411Z,30.60
2023-03-15T18:41:20.437Z,30.50
2023-03-15T18:43:51.440Z,30.50
2023-03-15T18:46:22.593Z,30.40
2023-03-15T18:48:53.492Z,30.30
2023-03-15T18:51:25.712Z,30.20
2023-03-15T18:53:54.334Z,30.20
2023-03-15T18:56:24.662Z,30.10
2023-03-15T18:58:53.919Z,30.00
2023-03-15T19:01:25.007Z,30.00
2023-03-15T19:03:54.811Z,29.90
2023-03-15T19:06:23.581Z,29.80
2023-03-15T19:08:54.239Z,29.80
2023-03-15T19:11:24.086Z,29.70
2023-03-15T19:13:52.574Z,29.60
2023-03-15T19:16:21.561Z,29.60
2023-03-15T19:18:52.351Z,29.50
2023-03-15T19:21:21.185Z,29.50
2023-03-15T19:23:49.409Z,29.40
2023-03-15T19:26:17.578Z,29.30
2023-03-15T19:28:45.736Z,29.30
2023-03-15T19:31:13.998Z,29.20
2023-03-15T19:33:42.218Z,29.20
2023-03-15T19:36:11.973Z,29.10
2023-03-15T19:38:40.242Z,29.10
2023-03-15T19:41:12.413Z,29.00
2023-03-15T19:43:43.344Z,29.00
2023-03-15T19:46:13.915Z,28.90
2023-03-15T19:48:42.555Z,28.90
2023-03-15T19:51:12.177Z,28.80
2023-03-15T19:53:40.121Z,28.70
2023-03-15T19:56:09.976Z,28.70
2023-03-15T19:58:38.138Z,28.70
2023-03-15T20:01:06.465Z,28.70
2023-03-15T20:03:35.222Z,28.60
2023-03-15T20:06:09.056Z,28.60
2023-03-15T20:08:39.335Z,28.50
2023-03-15T20:11:07.995Z,28.40
2023-03-15T20:13:37.027Z,28.30
2023-03-15T20:16:06.083Z,28.30
2023-03-15T20:18:34.308Z,28.30
2023-03-15T20:21:02.449Z,28.30
2023-03-15T20:23:30.768Z,28.30
2023-03-15T20:26:09.882Z,28.20
2023-03-15T20:28:38.472Z,28.20
2023-03-15T20:31:08.672Z,28.10
2023-03-15T20:33:37.040Z,28.10
2023-03-15T20:36:06.268Z,28.00
2023-03-15T20:38:37.169Z,27.90
2023-03-15T20:41:07.961Z,27.90
2023-03-15T20:43:36.855Z,27.90
2023-03-15T20:46:05.255Z,27.90
2023-03-15T20:48:36.060Z,27.90
2023-03-15T20:51:05.259Z,27.80
2023-03-15T20:53:34.769Z,27.70
2023-03-15T20:56:03.588Z,27.70
2023-03-15T20:58:33.128Z,27.60
2023-03-15T21:01:06.080Z,27.60
2023-03-15T21:03:35.301Z,27.60
2023-03-15T21:06:04.470Z,27.60
2023-03-15T21:08:33.313Z,27.60
2023-03-15T21:11:01.897Z,27.50
2023-03-15T21:13:30.100Z,27.40
2023-03-15T21:16:00.475Z,27.40
2023-03-15T21:18:28.723Z,27.30
2023-03-15T21:20:58.319Z,27.30
2023-03-15T21:23:27.917Z,27.30
2023-03-15T21:25:56.637Z,27.20
2023-03-15T21:28:25.192Z,27.10
2023-03-15T21:30:54.105Z,27.10
2023-03-15T21:33:25.340Z,27.00
2023-03-15T21:35:53.658Z,27.00
2023-03-15T21:38:21.834Z,26.90
2023-03-15T21:40:52.494Z,26.80
2023-03-15T21:43:20.876Z,26.70
2023-03-15T21:45:49.135Z,26.70
2023-03-15T21:48:17.967Z,26.70
2023-03-15T21:50:47.475Z,26.60
2023-03-15T21:53:15.635Z,26.50
2023-03-15T21:55:46.320Z,26.40
2023-03-15T21:58:14.887Z,26.40
2023-03-15T22:00:43.112Z,26.30
2023-03-15T22:03:13.571Z,26.30
2023-03-15T22:05:42.058Z,26.20
2023-03-15T22:08:11.628Z,26.10
2023-03-15T22:10:39.776Z,26.10
2023-03-15T22:13:07.942Z,26.00
2023-03-15T22:15:36.069Z,25.90
2023-03-15T22:18:04.529Z,25.90
2023-03-15T22:20:32.684Z,25.80
2023-03-15T22:23:04.355Z,25.80
2023-03-15T22:25:34.026Z,25.70
2023-03-15T22:28:02.910Z,25.60
2023-03-15T22:30:31.467Z,25.60
2023-03-15T22:33:00.063Z,25.50
2023-03-15T22:35:28.345Z,25.50
2023-03-15T22:37:58.220Z,25.40
2023-03-15T22:40:28.482Z,25.40
2023-03-15T22:42:58.457Z,25.30
2023-03-15T22:45:27.113Z,25.20
2023-03-15T22:47:55.387Z,25.20
2023-03-15T22:50:24.074Z,25.10
2023-03-15T22:52:52.626Z,25.10
2023-03-15T22:55:21.150Z,25.00
2023-03-15T22:57:49.576Z,25.00
2023-03-15T23:00:23.278Z,24.90
2023-03-15T23:02:51.698Z,24.80
2023-03-15T23:05:21.356Z,24.80
2023-03-15T23:07:49.282Z,24.70
2023-03-15T23:10:17.686Z,24.70
2023-03-15T23:12:46.057Z,24.50
2023-03-15T23:15:14.915Z,24.50
2023-03-15T23:17:46.052Z,24.50
2023-03-15T23:20:15.810Z,24.50
2023-03-15T23:22:43.897Z,24.40
2023-03-15T23:25:13.520Z,24.40
2023-03-15T23:27:41.957Z,24.40
2023-03-15T23:30:11.745Z,24.40
2023-03-15T23:32:40.101Z,24.40
2023-03-15T23:35:42.059Z,24.30
2023-03-15T23:38:10.216Z,24.30
2023-03-15T23:40:38.469Z,24.30
2023-03-15T23:43:09.255Z,24.30
2023-03-15T23:45:37.421Z,24.20
2023-03-15T23:48:05.953Z,24.20
2023-03-15T23:50:34.116Z,24.10
2023-03-15T23:53:03.645Z,24.10
2023-03-15T23:55:33.348Z,24.00
2023-03-15T23:58:01.585Z,24.00
